Time;durP1;ratioP1;P1;durP2;ratioP2;P2;SDS_P1;SDS_P2;PMS_P1;PMS_P2;Temp;Humidity;BMP_temperature;BMP_pressure;BME280_temperature;BME280_humidity;BME280_pressure;Samples;Min_cycle;Max_cycle;Signal;HPM_P1;HPM_P2
2022/07/26 00:01:44;;;;;;;5.35;1.17;;;19.50;99.90;;;-144.05;51.78;125687.94;5097767;28;20059;-88
2022/07/26 00:04:11;;;;;;;8.73;1.65;;;19.50;99.90;;;-144.05;51.81;125687.94;5111928;28;20052;-88
2022/07/26 00:06:38;;;;;;;4.63;1.52;;;19.40;99.90;;;-144.05;51.80;125687.94;5094470;28;20025;-88
2022/07/26 00:09:04;;;;;;;8.02;1.35;;;19.40;99.90;;;-144.05;51.85;125687.94;5094609;28;20024;-88
2022/07/26 00:11:32;;;;;;;3.03;1.10;;;19.40;99.90;;;-144.05;51.87;125687.94;5094490;28;20473;-88
2022/07/26 00:14:05;;;;;;;3.00;1.00;;;19.40;99.90;;;-144.05;52.07;125687.94;5094643;28;20050;-86
2022/07/26 00:16:32;;;;;;;6.43;1.50;;;19.30;99.90;;;-144.05;52.22;125687.94;5094438;28;20071;-88
2022/07/26 00:18:58;;;;;;;2.13;0.80;;;19.30;99.90;;;-144.05;52.95;125687.94;5095255;28;20028;-88
2022/07/26 00:21:24;;;;;;;2.90;1.17;;;19.30;99.90;;;-144.05;52.65;125687.94;5094389;28;20050;-86
2022/07/26 00:23:50;;;;;;;5.00;1.00;;;19.20;99.90;;;-144.05;52.78;125687.94;5095114;28;20083;-88
2022/07/26 00:26:16;;;;;;;5.32;1.50;;;19.20;99.90;;;-144.05;52.79;125687.94;5094310;28;20020;-88
2022/07/26 00:28:43;;;;;;;3.45;0.90;;;19.20;99.90;;;-144.05;52.91;125687.94;5093781;28;20143;-86
2022/07/26 00:31:11;;;;;;;3.60;1.00;;;19.10;99.90;;;-144.05;53.06;125687.94;5094029;28;20107;-88
2022/07/26 00:33:38;;;;;;;3.65;1.20;;;19.10;99.90;;;-144.05;53.24;125687.94;5094513;28;20032;-87
2022/07/26 00:36:06;;;;;;;2.97;1.00;;;19.10;99.90;;;-144.05;53.30;125687.94;5095633;28;20099;-87
2022/07/26 00:38:32;;;;;;;3.45;0.90;;;19.00;99.90;;;-144.05;53.33;125687.94;5094310;28;20038;-89
2022/07/26 00:40:59;;;;;;;3.92;1.08;;;19.00;99.90;;;-144.05;53.65;125687.94;5094750;28;20028;-88
2022/07/26 00:43:24;;;;;;;2.92;1.23;;;19.00;99.90;;;-144.05;53.90;125687.94;5093610;28;20127;-87
2022/07/26 00:45:50;;;;;;;6.05;1.13;;;18.90;99.90;;;-144.05;53.99;125687.94;5095074;28;20142;-88
2022/07/26 00:48:17;;;;;;;5.80;1.55;;;18.90;99.90;;;-144.05;54.20;125687.94;5095281;28;20024;-86
2022/07/26 00:50:44;;;;;;;5.63;1.30;;;18.80;99.90;;;-144.05;54.78;125687.94;5096777;28;20034;-88
2022/07/26 00:53:10;;;;;;;7.70;1.42;;;18.70;99.90;;;-144.05;54.90;125687.94;5097517;28;20039;-87
2022/07/26 00:55:36;;;;;;;5.38;1.70;;;18.60;99.90;;;-144.05;55.40;125687.94;5107991;28;20031;-87
2022/07/26 00:58:05;;;;;;;5.45;1.30;;;18.50;99.90;;;-144.05;55.98;125687.94;5105882;28;20039;-88
2022/07/26 01:00:32;;;;;;;3.25;1.20;;;18.40;99.90;;;-144.05;56.53;125687.94;5099308;28;20024;-88
2022/07/26 01:02:59;;;;;;;3.13;1.00;;;18.30;99.90;;;-144.05;56.66;125687.94;5097365;28;20503;-89
2022/07/26 01:05:27;;;;;;;6.78;1.67;;;18.20;99.90;;;-144.05;57.40;125687.94;5099523;28;20031;-88
2022/07/26 01:07:55;;;;;;;7.28;1.58;;;18.20;99.90;;;-144.05;57.61;125687.94;5099187;28;20035;-90
2022/07/26 01:10:21;;;;;;;2.28;1.10;;;18.10;99.90;;;-144.05;57.61;125687.94;5097853;28;20492;-86
2022/07/26 01:12:47;;;;;;;3.58;1.20;;;18.00;99.90;;;-144.05;58.13;125687.94;5115150;28;20028;-88
2022/07/26 01:15:15;;;;;;;3.88;1.50;;;17.90;99.90;;;-144.05;58.29;125687.94;5099895;28;20201;-88
2022/07/26 01:17:42;;;;;;;3.53;1.10;;;17.80;99.90;;;-144.05;59.03;125687.94;5098527;28;20047;-88
2022/07/26 01:20:12;;;;;;;3.55;1.52;;;17.80;99.90;;;-144.05;59.29;125687.94;5098316;28;20024;-88
2022/07/26 01:22:39;;;;;;;5.32;1.58;;;17.80;99.90;;;-144.05;59.26;125687.94;5099262;28;20044;-88
2022/07/26 01:25:07;;;;;;;4.35;1.30;;;17.80;99.90;;;-144.05;59.15;125687.94;5098771;28;20043;-88
2022/07/26 01:27:38;;;;;;;3.90;1.40;;;17.80;99.90;;;-144.05;59.70;125687.94;5099287;28;20088;-88
2022/07/26 01:30:09;;;;;;;3.67;1.20;;;17.70;99.90;;;-144.05;59.80;125687.94;5099758;28;20027;-86
2022/07/26 01:32:36;;;;;;;6.07;1.55;;;17.60;99.90;;;-144.05;60.20;125687.94;5098443;28;20443;-87
2022/07/26 01:35:04;;;;;;;5.63;1.60;;;17.60;99.90;;;-144.05;60.43;125687.94;5099094;28;20028;-87
2022/07/26 01:37:30;;;;;;;3.33;1.48;;;17.50;99.90;;;-144.05;60.75;125687.94;5098511;28;20032;-86
2022/07/26 01:39:56;;;;;;;7.68;1.77;;;17.50;99.90;;;-144.05;60.87;125687.94;5098405;28;20043;-87
2022/07/26 01:42:21;;;;;;;7.32;1.48;;;17.50;99.90;;;-144.05;61.23;125687.94;5100505;28;20032;-87
2022/07/26 01:44:47;;;;;;;3.45;1.42;;;17.50;99.90;;;-144.05;61.34;125687.94;5098696;28;20306;-88
2022/07/26 01:47:13;;;;;;;3.63;1.60;;;17.50;99.90;;;-144.05;61.78;125687.94;5098086;28;20016;-90
2022/07/26 01:49:39;;;;;;;8.52;1.65;;;17.50;99.90;;;-144.05;61.94;125687.94;5115569;28;20417;-89
2022/07/26 01:52:05;;;;;;;4.18;1.38;;;17.50;99.90;;;-144.05;61.76;125687.94;5100174;28;20026;-88
2022/07/26 01:54:32;;;;;;;5.40;1.58;;;17.50;99.90;;;-144.05;61.54;125687.94;5097346;28;20473;-88
2022/07/26 01:56:58;;;;;;;5.95;1.98;;;17.50;99.90;;;-144.05;61.40;125687.94;5096513;28;20035;-87
2022/07/26 01:59:24;;;;;;;4.13;1.52;;;17.60;99.90;;;-144.05;61.50;125687.94;5113576;28;20028;-89
2022/07/26 02:01:49;;;;;;;7.95;2.08;;;17.60;99.90;;;-144.05;61.48;125687.94;5097768;28;20024;-87
2022/07/26 02:07:00;;;;;;;3.65;1.50;;;17.80;99.90;;;-144.05;60.60;125687.94;5098569;28;20039;-89
2022/07/26 02:09:26;;;;;;;5.90;1.60;;;17.90;99.90;;;-144.05;60.68;125687.94;5114265;28;20035;-87
2022/07/26 02:11:53;;;;;;;7.05;1.80;;;18.00;99.90;;;-144.05;60.38;125687.94;5097779;28;20023;-90
2022/07/26 02:14:19;;;;;;;6.57;1.77;;;18.00;99.90;;;-144.05;60.18;125687.94;5098367;28;20036;-85
2022/07/26 02:16:46;;;;;;;6.78;1.80;;;18.00;99.90;;;-144.05;60.23;125687.94;5097939;28;20028;-88
2022/07/26 02:19:12;;;;;;;4.97;1.58;;;18.00;99.90;;;-144.05;60.25;125687.94;5097269;28;20031;-87
2022/07/26 02:21:39;;;;;;;4.57;1.77;;;17.90;99.90;;;-144.05;60.66;125687.94;5114434;28;20058;-88
2022/07/26 02:24:06;;;;;;;7.40;1.98;;;17.80;99.90;;;-144.05;60.91;125687.94;5096565;28;20032;-87
2022/07/26 02:26:32;;;;;;;3.67;1.40;;;17.70;99.90;;;-144.05;60.99;125687.94;5096320;28;20024;-87
2022/07/26 02:28:58;;;;;;;7.78;2.00;;;17.80;99.90;;;-144.05;61.07;125687.94;5097847;28;20154;-89
2022/07/26 02:31:24;;;;;;;6.90;2.13;;;17.70;99.90;;;-144.05;61.37;125687.94;5096532;28;20047;-87
2022/07/26 02:33:50;;;;;;;8.15;2.38;;;17.70;99.90;;;-144.05;61.35;125687.94;5096599;28;20099;-87
2022/07/26 02:36:16;;;;;;;4.15;1.85;;;17.70;99.90;;;-144.05;61.41;125687.94;5096355;28;20112;-88
2022/07/26 02:38:41;;;;;;;4.10;1.85;;;17.70;99.90;;;-144.05;61.10;125687.94;5095834;28;20028;-87
2022/07/26 02:41:07;;;;;;;7.07;2.28;;;17.70;99.90;;;-144.05;61.89;125687.94;5096310;28;20457;-87
2022/07/26 02:43:33;;;;;;;7.75;2.10;;;17.70;99.90;;;-144.05;61.52;125687.94;5096105;28;20032;-87
2022/07/26 02:45:59;;;;;;;6.88;2.05;;;17.70;99.90;;;-144.05;61.52;125687.94;5096262;28;20028;-87
2022/07/26 02:48:25;;;;;;;6.55;2.00;;;17.70;99.90;;;-144.05;61.66;125687.94;5096313;28;20028;-90
2022/07/26 02:50:51;;;;;;;7.30;1.92;;;17.80;99.90;;;-144.05;61.50;125687.94;5096477;28;20024;-88
2022/07/26 02:53:16;;;;;;;6.60;1.83;;;17.80;99.90;;;-144.05;61.39;125687.94;5096699;28;20032;-86
2022/07/26 02:55:42;;;;;;;4.03;1.88;;;17.80;99.90;;;-144.05;61.47;125687.94;5096131;28;20055;-87
2022/07/26 02:58:08;;;;;;;6.32;2.25;;;17.80;99.90;;;-144.05;61.79;125687.94;5096990;28;20028;-87
2022/07/26 03:00:34;;;;;;;5.85;1.65;;;17.80;99.90;;;-144.05;61.85;125687.94;5096087;28;20028;-86
2022/07/26 03:03:00;;;;;;;8.93;2.22;;;17.80;99.90;;;-144.05;61.64;125687.94;5095456;28;20071;-88
2022/07/26 03:05:26;;;;;;;8.20;1.80;;;17.90;99.90;;;-144.05;61.47;125687.94;5123975;28;20031;-86
2022/07/26 03:07:52;;;;;;;6.40;1.77;;;17.80;99.90;;;-144.05;61.66;125687.94;5102152;28;20028;-87
2022/07/26 03:10:18;;;;;;;4.50;1.90;;;17.80;99.90;;;-144.05;61.99;125687.94;5097864;28;20039;-88
2022/07/26 03:12:44;;;;;;;5.45;1.90;;;17.80;99.90;;;-144.05;62.10;125687.94;5086953;28;20024;-89
2022/07/26 03:15:11;;;;;;;7.32;1.90;;;17.80;99.90;;;-144.05;61.89;125687.94;5077043;28;20036;-90
2022/07/26 03:17:38;;;;;;;7.50;1.65;;;17.80;99.90;;;-144.05;61.79;125687.94;5075238;28;20024;-88
2022/07/26 03:20:06;;;;;;;7.28;1.83;;;17.90;99.90;;;-144.05;61.62;125687.94;5075225;28;20039;-88
2022/07/26 03:22:31;;;;;;;6.70;1.67;;;17.90;99.90;;;-144.05;61.39;125687.94;5075318;28;20024;-89
2022/07/26 03:24:58;;;;;;;5.30;1.30;;;17.90;99.90;;;-144.05;61.17;125687.94;5075229;28;20060;-90
2022/07/26 03:27:23;;;;;;;4.60;1.50;;;18.00;99.90;;;-144.05;61.72;125687.94;5075563;28;20112;-88
2022/07/26 03:29:49;;;;;;;5.60;1.55;;;18.00;99.90;;;-144.05;62.48;125687.94;5074550;28;20044;-89
2022/07/26 03:32:15;;;;;;;7.10;1.90;;;18.00;99.90;;;-144.05;63.78;125687.94;5075448;28;20054;-88
2022/07/26 03:34:41;;;;;;;7.20;1.70;;;17.90;99.90;;;-144.05;64.80;125687.94;5077724;28;20028;-86
2022/07/26 03:37:07;;;;;;;6.95;1.98;;;17.80;99.90;;;-144.05;66.80;125687.94;5079746;28;20024;-88
2022/07/26 03:39:33;;;;;;;7.03;2.15;;;17.70;99.90;;;-144.05;67.99;125687.94;5077735;28;20028;-89
2022/07/26 03:41:59;;;;;;;9.32;2.22;;;17.60;99.90;;;-144.05;68.69;125687.94;5077863;28;20489;-90
2022/07/26 03:44:24;;;;;;;8.50;1.90;;;17.50;99.90;;;-144.05;68.84;125687.94;5078617;28;20393;-89
2022/07/26 03:46:50;;;;;;;6.80;2.45;;;17.40;99.90;;;-144.05;69.88;125687.94;5081536;28;20028;-89
2022/07/26 03:49:16;;;;;;;9.38;2.20;;;17.40;99.90;;;-144.05;69.99;125687.94;5082440;28;20051;-87
2022/07/26 03:51:42;;;;;;;6.57;2.30;;;17.30;99.90;;;-144.05;70.26;125687.94;5086880;28;20119;-88
2022/07/26 03:54:08;;;;;;;5.53;2.13;;;17.30;99.90;;;-144.05;70.51;125687.94;5099803;28;20074;-89
2022/07/26 03:56:34;;;;;;;7.30;2.03;;;17.30;99.90;;;-144.05;70.56;125687.94;5078162;28;20489;-87
2022/07/26 03:59:09;;;;;;;6.63;2.00;;;17.30;99.90;;;-144.05;70.99;125687.94;5075521;28;20482;-87
2022/07/26 04:01:40;;;;;;;9.63;2.35;;;17.30;99.90;;;-144.05;71.25;125687.94;5078282;28;20028;-90
2022/07/26 04:10:53;;;;;;;7.35;2.47;;;17.30;99.90;;;-144.05;73.01;125687.94;5084980;28;20053;-90
2022/07/26 04:14:14;;;;;;;9.60;2.47;;;17.30;99.90;;;-144.05;73.59;125687.94;4923577;29;20714;-89
2022/07/26 04:16:48;;;;;;;8.02;2.30;;;17.30;99.90;;;-144.05;73.46;125687.94;4987879;28;20207;-87
2022/07/26 04:19:24;;;;;;;6.15;2.88;;;17.30;99.90;;;-144.05;73.37;125687.94;5069967;28;20404;-89
2022/07/26 04:21:55;;;;;;;10.10;2.50;;;17.20;99.90;;;-144.05;73.30;125687.94;5069168;28;20055;-87
2022/07/26 04:24:46;;;;;;;7.50;2.90;;;17.20;99.90;;;-144.05;73.83;125687.94;5070885;28;20059;-91
2022/07/26 04:27:13;;;;;;;9.13;3.53;;;17.30;99.90;;;-144.05;75.80;125687.94;5075509;28;20047;-92
2022/07/26 04:30:08;;;;;;;9.63;3.30;;;17.20;99.90;;;-144.05;76.82;125687.94;5090989;28;20415;-89
2022/07/26 04:32:36;;;;;;;9.20;3.22;;;17.10;99.90;;;-144.05;78.05;125687.94;5073298;28;20030;-89
2022/07/26 04:35:22;;;;;;;10.50;3.50;;;17.00;99.90;;;-144.05;79.37;125687.94;5072830;28;20036;-91
2022/07/26 04:38:22;;;;;;;11.68;3.17;;;17.00;99.90;;;-144.05;79.85;125687.94;5074850;28;20096;-91
2022/07/26 04:40:54;;;;;;;12.35;3.13;;;17.00;99.90;;;-144.05;80.39;125687.94;5072278;28;20132;-87
2022/07/26 04:43:26;;;;;;;12.70;3.80;;;16.90;99.90;;;-144.05;80.52;125687.94;5069316;28;20028;-89
2022/07/26 04:46:19;;;;;;;11.05;3.72;;;16.80;99.90;;;-144.05;81.56;125687.94;5087403;28;20040;-89
2022/07/26 04:49:07;;;;;;;9.52;3.53;;;16.80;99.90;;;-144.05;82.34;125687.94;5068457;28;20054;-92
2022/07/26 04:52:08;;;;;;;9.40;3.22;;;16.80;99.90;;;-144.05;81.63;125687.94;5070928;28;20027;-93
2022/07/26 04:54:42;;;;;;;10.65;3.40;;;16.80;99.90;;;-144.05;82.32;125687.94;5070604;28;20074;-91
2022/07/26 04:57:15;;;;;;;9.82;3.53;;;16.80;99.90;;;-144.05;82.74;125687.94;5071126;28;20032;-90
2022/07/26 04:59:41;;;;;;;10.02;3.47;;;16.80;99.90;;;-144.05;83.17;125687.94;5070754;28;20087;-92
2022/07/26 05:02:17;;;;;;;12.30;4.10;;;16.80;99.90;;;-144.05;83.56;125687.94;5070205;28;20063;-91
2022/07/26 05:05:00;;;;;;;9.57;4.25;;;16.80;99.90;;;-144.05;84.74;125687.94;5071497;28;20522;-91
2022/07/26 05:08:04;;;;;;;9.95;3.60;;;16.70;99.90;;;-144.05;84.78;125687.94;5072675;28;20036;-90
2022/07/26 05:10:39;;;;;;;11.48;3.65;;;16.70;99.90;;;-144.05;85.56;125687.94;5071622;28;20037;-94
2022/07/26 05:13:09;;;;;;;7.60;3.30;;;16.50;99.90;;;-144.05;85.66;125687.94;5070565;28;20032;-91
2022/07/26 05:15:53;;;;;;;9.55;3.08;;;16.70;99.90;;;-144.05;85.92;125687.94;5071313;28;20549;-91
2022/07/26 05:18:29;;;;;;;13.75;3.55;;;16.60;99.90;;;-144.05;85.93;125687.94;5072885;28;20099;-89
2022/07/26 05:21:01;;;;;;;6.22;2.88;;;16.60;99.90;;;-144.05;85.07;125687.94;5073625;28;20047;-91
2022/07/26 05:23:32;;;;;;;8.07;3.40;;;16.70;99.90;;;-144.05;84.61;125687.94;5072609;28;20123;-92
2022/07/26 05:26:02;;;;;;;10.60;3.55;;;16.70;99.90;;;-144.05;84.20;125687.94;5068875;28;20029;-90
2022/07/26 05:28:28;;;;;;;9.95;2.72;;;16.60;99.90;;;-144.05;84.00;125687.94;5070122;28;20028;-91
2022/07/26 05:31:01;;;;;;;9.55;2.92;;;16.70;99.90;;;-144.05;84.08;125687.94;5071673;28;20024;-89
2022/07/26 05:33:29;;;;;;;9.00;3.53;;;16.70;99.90;;;-144.05;84.06;125687.94;5065136;28;20123;-88
2022/07/26 05:35:57;;;;;;;7.18;2.97;;;16.70;99.90;;;-144.05;84.07;125687.94;5066572;28;20056;-90
2022/07/26 05:38:45;;;;;;;12.95;3.88;;;16.80;99.90;;;-144.05;84.25;125687.94;5068481;28;20032;-88
2022/07/26 05:41:21;;;;;;;11.15;3.05;;;16.70;99.90;;;-144.05;84.51;125687.94;5076559;28;20088;-87
2022/07/26 05:44:00;;;;;;;9.93;3.00;;;16.90;99.90;;;-144.05;83.78;125687.94;5076346;28;20054;-90
2022/07/26 05:46:33;;;;;;;11.68;3.00;;;16.90;99.90;;;-144.05;83.74;125687.94;5066777;28;20029;-90
2022/07/26 05:49:18;;;;;;;11.63;3.30;;;17.00;99.90;;;-144.05;83.30;125687.94;5065916;28;20035;-90
2022/07/26 05:52:01;;;;;;;13.43;3.85;;;17.00;99.90;;;-144.05;82.82;125687.94;5067599;28;20027;-89
2022/07/26 05:54:37;;;;;;;9.95;3.35;;;17.10;99.90;;;-144.05;81.89;125687.94;5065909;28;20430;-91
2022/07/26 05:57:06;;;;;;;13.73;3.42;;;17.20;99.90;;;-144.05;81.89;125687.94;5062667;28;20121;-87
2022/07/26 05:59:33;;;;;;;12.23;3.10;;;17.20;99.90;;;-144.05;82.19;125687.94;5062936;28;20060;-87
2022/07/26 06:02:07;;;;;;;12.52;3.30;;;17.20;99.90;;;-144.05;81.50;125687.94;5066987;28;20030;-88
2022/07/26 06:10:12;;;;;;;12.13;2.97;;;17.40;99.90;;;-144.05;80.55;125687.94;5053798;28;20108;-88
2022/07/26 06:12:48;;;;;;;13.10;3.25;;;17.50;99.90;;;-144.05;79.64;125687.94;5066935;28;20043;-91
2022/07/26 06:15:39;;;;;;;9.48;3.03;;;17.60;99.90;;;-144.05;78.32;125687.94;5066440;28;20104;-89
2022/07/26 06:19:17;;;;;;;9.00;2.97;;;17.70;99.90;;;-144.05;78.55;125687.94;5065266;28;20055;-89
2022/07/26 06:22:01;;;;;;;;;;;17.80;99.90;;;-144.05;77.29;125687.94;5065727;28;20036;-88
2022/07/26 06:25:51;;;;;;;12.07;3.67;;;18.00;99.90;;;-144.05;76.62;125687.94;5070062;28;19912;-91
2022/07/26 06:29:24;;;;;;;10.05;3.92;;;18.10;99.90;;;-144.05;76.55;125687.94;5062521;28;20033;-91
2022/07/26 06:55:32;;;;;;;;;;;;;;;;;;;;;
2022/07/26 06:59:07;;;;;;;17.00;5.53;;;18.90;99.90;;;-144.05;71.97;125687.94;5106465;28;20035;-90
2022/07/26 07:03:00;;;;;;;13.88;6.45;;;19.00;99.90;;;-144.05;72.06;125687.94;5092631;28;20036;-89
2022/07/26 07:07:04;;;;;;;;;;;;;;;;;;;;;
2022/07/26 07:10:23;;;;;;;11.82;5.50;;;19.00;99.90;;;-144.05;72.76;125687.94;5086204;28;20641;-90
2022/07/26 07:13:11;;;;;;;;;;;;;;;;;;;;;
2022/07/26 07:15:56;;;;;;;20.05;8.43;;;19.30;99.90;;;-144.05;70.49;125687.94;5088344;28;20044;-88
2022/07/26 07:18:28;;;;;;;15.55;7.97;;;19.30;99.90;;;-144.05;70.93;125687.94;5085533;28;20039;-88
2022/07/26 07:21:41;;;;;;;16.77;9.27;;;19.30;99.90;;;-144.05;69.61;125687.94;5066932;28;20032;-90
2022/07/26 07:24:20;;;;;;;16.77;8.70;;;19.50;99.90;;;-144.05;68.57;125687.94;5062928;28;20029;-90
2022/07/26 07:27:33;;;;;;;14.32;8.05;;;19.90;99.90;;;-144.05;68.33;125687.94;5067522;28;20067;-90
2022/07/26 07:31:12;;;;;;;16.15;8.55;;;20.30;99.90;;;-144.05;65.14;125687.94;5082189;28;20106;-89
2022/07/26 07:34:10;;;;;;;20.77;9.40;;;20.30;99.90;;;-144.05;65.72;125687.94;5089563;28;20032;-89
2022/07/26 07:37:15;;;;;;;12.75;7.90;;;20.30;99.90;;;-144.05;64.62;125687.94;5092920;28;20028;-86
2022/07/26 07:39:51;;;;;;;18.17;8.27;;;20.50;99.90;;;-144.05;63.06;125687.94;5094440;28;20043;-87
2022/07/26 07:42:45;;;;;;;13.57;8.27;;;21.00;99.90;;;-144.05;61.77;125687.94;5092881;28;20094;-88
2022/07/26 07:45:44;;;;;;;15.05;8.35;;;21.20;99.90;;;-144.05;61.82;125687.94;5072869;28;20024;-87
2022/07/26 07:48:21;;;;;;;14.15;8.05;;;21.10;99.90;;;-144.05;62.49;125687.94;5076253;28;20024;-89
2022/07/26 07:50:51;;;;;;;17.17;9.57;;;21.10;99.90;;;-144.05;62.09;125687.94;5075173;28;20092;-88
2022/07/26 07:53:26;;;;;;;15.25;10.52;;;21.10;99.90;;;-144.05;60.23;125687.94;5073498;28;20029;-88
2022/07/26 07:56:01;;;;;;;15.00;10.07;;;21.10;99.90;;;-144.05;60.87;125687.94;5073298;28;20068;-88
2022/07/26 07:58:27;;;;;;;12.48;9.98;;;21.50;99.90;;;-144.05;57.42;125687.94;5081648;28;20048;-88
2022/07/26 08:00:53;;;;;;;14.32;8.90;;;21.80;99.90;;;-144.05;58.12;125687.94;5062258;28;20036;-90
2022/07/26 08:03:20;;;;;;;15.15;8.50;;;22.00;99.90;;;-144.05;57.70;125687.94;5062198;28;20058;-89
2022/07/26 08:05:47;;;;;;;15.55;7.65;;;22.10;99.90;;;-144.05;57.57;125687.94;5078424;28;20059;-88
2022/07/26 08:08:15;;;;;;;11.90;7.60;;;21.80;99.90;;;-144.05;58.78;125687.94;5062539;28;20021;-88
2022/07/26 08:10:41;;;;;;;13.02;8.25;;;21.60;99.90;;;-144.05;58.92;125687.94;5060634;28;20029;-89
2022/07/26 08:13:07;;;;;;;14.63;8.48;;;21.50;99.90;;;-144.05;58.47;125687.94;5060207;28;20456;-87
2022/07/26 08:15:34;;;;;;;15.10;7.50;;;21.80;99.90;;;-144.05;57.11;125687.94;5076943;28;20024;-89
2022/07/26 08:18:00;;;;;;;15.05;7.75;;;22.30;99.90;;;-144.05;54.45;125687.94;5061301;28;20051;-88
2022/07/26 08:20:26;;;;;;;13.45;7.30;;;22.60;99.90;;;-144.05;53.65;125687.94;5061322;28;20028;-88
2022/07/26 08:22:52;;;;;;;14.45;7.10;;;23.00;99.90;;;-144.05;51.70;125687.94;5061803;28;20056;-89
2022/07/26 08:25:19;;;;;;;11.60;6.80;;;23.60;99.90;;;-144.05;49.69;125687.94;5061046;28;20082;-90
2022/07/26 08:27:45;;;;;;;11.30;5.80;;;24.20;99.90;;;-144.05;49.14;125687.94;5060828;28;20029;-89
2022/07/26 08:30:12;;;;;;;8.82;5.20;;;24.40;99.90;;;-144.05;50.74;125687.94;5065101;28;20064;-87
2022/07/26 08:32:39;;;;;;;9.68;5.28;;;24.00;99.90;;;-144.05;50.46;125687.94;5066827;28;20025;-90
2022/07/26 08:35:07;;;;;;;13.85;5.07;;;23.60;99.90;;;-144.05;50.43;125687.94;5079811;28;20029;-87
2022/07/26 08:37:39;;;;;;;8.70;5.00;;;23.50;99.90;;;-144.05;51.46;125687.94;5081822;28;20036;-89
2022/07/26 08:40:06;;;;;;;9.25;5.28;;;23.70;99.90;;;-144.05;50.31;125687.94;5065522;28;20072;-90
2022/07/26 08:42:32;;;;;;;9.38;4.75;;;23.80;99.90;;;-144.05;50.73;125687.94;5061366;28;20028;-89
2022/07/26 08:45:00;;;;;;;9.55;4.72;;;23.60;99.90;;;-144.05;51.11;125687.94;5060712;28;20529;-87
2022/07/26 08:47:26;;;;;;;11.30;5.25;;;23.10;99.90;;;-144.05;53.37;125687.94;5060718;28;20033;-87
2022/07/26 08:49:52;;;;;;;10.73;4.32;;;22.50;99.90;;;-144.05;54.90;125687.94;5065047;28;20100;-85
2022/07/26 08:52:18;;;;;;;13.07;5.38;;;22.10;99.90;;;-144.05;54.34;125687.94;5064072;28;20078;-87
2022/07/26 08:54:49;;;;;;;12.48;5.22;;;22.20;99.90;;;-144.05;53.55;125687.94;5082200;28;20036;-88
2022/07/26 08:57:16;;;;;;;7.50;4.18;;;22.80;99.90;;;-144.05;49.95;125687.94;5066030;28;20401;-87
2022/07/26 08:59:43;;;;;;;11.43;5.63;;;23.80;99.90;;;-144.05;48.72;125687.94;5069393;28;20028;-87
2022/07/26 09:02:12;;;;;;;11.02;5.40;;;24.40;99.90;;;-144.05;48.71;125687.94;5063548;28;20177;-92
2022/07/26 09:04:45;;;;;;;8.65;5.38;;;24.80;99.90;;;-144.05;46.25;125687.94;5061749;28;20044;-89
2022/07/26 09:07:17;;;;;;;11.70;6.25;;;24.90;99.90;;;-144.05;48.27;125687.94;5063248;28;20025;-90
2022/07/26 09:10:03;;;;;;;10.80;6.00;;;24.10;99.90;;;-144.05;50.46;125687.94;5061530;28;20028;-89
2022/07/26 09:12:31;;;;;;;9.63;6.45;;;23.20;99.90;;;-144.05;52.68;125687.94;5066379;28;20025;-88
2022/07/26 09:15:00;;;;;;;10.50;6.75;;;22.50;99.90;;;-144.05;53.81;125687.94;5063325;28;20024;-89
2022/07/26 09:18:04;;;;;;;13.02;6.97;;;22.10;99.90;;;-144.05;57.76;125687.94;5062948;28;20068;-90
2022/07/26 09:20:31;;;;;;;10.80;7.05;;;21.60;99.90;;;-144.05;61.48;125687.94;5066190;28;20032;-88
2022/07/26 09:23:18;;;;;;;16.27;8.75;;;21.00;99.90;;;-144.05;64.06;125687.94;5067738;28;20087;-87
2022/07/26 09:25:46;;;;;;;14.05;8.07;;;20.50;99.90;;;-144.05;67.12;125687.94;5087277;28;20028;-87
2022/07/26 09:28:31;;;;;;;10.18;8.15;;;20.10;99.90;;;-144.05;69.41;125687.94;5065786;28;20039;-87
2022/07/26 09:31:02;;;;;;;14.55;7.75;;;19.80;99.90;;;-144.05;69.92;125687.94;5074732;28;20033;-87
2022/07/26 09:33:50;;;;;;;12.63;8.05;;;19.70;99.90;;;-144.05;69.95;125687.94;5075290;28;20046;-87
2022/07/26 09:36:18;;;;;;;9.88;7.30;;;19.60;99.90;;;-144.05;70.19;125687.94;5081659;28;20033;-87
2022/07/26 09:39:07;;;;;;;11.15;7.88;;;19.60;99.90;;;-144.05;72.33;125687.94;5071712;28;20100;-89
2022/07/26 09:41:46;;;;;;;13.65;6.88;;;19.90;99.90;;;-144.05;69.12;125687.94;5089734;28;20028;-89
2022/07/26 09:44:53;;;;;;;13.27;7.75;;;20.90;99.90;;;-144.05;65.11;125687.94;5071653;28;20009;-88
2022/07/26 09:47:21;;;;;;;13.02;6.55;;;22.00;99.90;;;-144.05;60.32;125687.94;5091072;28;20033;-89
2022/07/26 09:49:47;;;;;;;17.17;6.68;;;22.90;99.90;;;-144.05;59.42;125687.94;5069855;28;20025;-90
2022/07/26 09:52:20;;;;;;;8.70;4.45;;;23.50;99.90;;;-144.05;57.85;125687.94;5083054;28;20043;-92
2022/07/26 09:54:48;;;;;;;11.52;4.90;;;23.40;99.90;;;-144.05;57.07;125687.94;5064802;28;20097;-90
2022/07/26 09:57:19;;;;;;;8.27;4.32;;;22.80;99.90;;;-144.05;59.89;125687.94;5063920;28;20028;-92
2022/07/26 09:59:46;;;;;;;9.77;4.85;;;22.40;99.90;;;-144.05;60.34;125687.94;5082804;28;20501;-92
2022/07/26 10:02:13;;;;;;;7.53;4.40;;;22.00;99.90;;;-144.05;61.11;125687.94;5081356;28;20024;-88
2022/07/26 10:04:43;;;;;;;15.02;4.40;;;21.90;99.90;;;-144.05;59.67;125687.94;5071991;28;20016;-89
2022/07/26 10:07:09;;;;;;;9.18;4.15;;;21.80;99.90;;;-144.05;59.84;125687.94;5065058;28;20393;-89
2022/07/26 10:10:11;;;;;;;6.90;4.07;;;21.70;99.90;;;-144.05;60.01;125687.94;5071269;28;20020;-87
2022/07/26 10:12:38;;;;;;;8.65;3.92;;;21.60;99.90;;;-144.05;60.06;125687.94;5084910;28;20120;-88
2022/07/26 10:15:05;;;;;;;11.93;4.40;;;21.60;99.90;;;-144.05;60.02;125687.94;5069479;28;20029;-87
2022/07/26 10:17:41;;;;;;;9.77;4.38;;;21.60;99.90;;;-144.05;60.67;125687.94;5088634;28;20029;-87
2022/07/26 10:20:49;;;;;;;10.25;3.72;;;21.80;99.90;;;-144.05;59.24;125687.94;5073236;28;20133;-89
2022/07/26 10:23:43;;;;;;;12.27;4.30;;;22.40;99.90;;;-144.05;55.00;125687.94;5067272;28;20035;-86
2022/07/26 10:26:30;;;;;;;5.05;2.88;;;23.70;99.90;;;-144.05;50.34;125687.94;5069071;28;20359;-88
2022/07/26 10:29:16;;;;;;;10.32;3.17;;;24.80;99.90;;;-144.05;46.72;125687.94;5069094;28;20194;-88
2022/07/26 10:31:47;;;;;;;5.30;3.10;;;24.90;99.90;;;-144.05;48.89;125687.94;5071143;28;20032;-88
2022/07/26 10:34:47;;;;;;;5.53;2.88;;;24.80;99.90;;;-144.05;49.54;125687.94;5068445;28;20097;-89
2022/07/26 10:37:26;;;;;;;5.63;3.55;;;24.30;99.90;;;-144.05;50.17;125687.94;5067442;28;20032;-88
2022/07/26 10:40:18;;;;;;;9.15;3.35;;;23.80;99.90;;;-144.05;49.76;125687.94;5066524;28;20048;-90
2022/07/26 10:42:45;;;;;;;7.63;3.20;;;23.30;99.90;;;-144.05;50.68;125687.94;5067098;28;20485;-87
2022/07/26 10:45:21;;;;;;;11.45;3.70;;;22.90;99.90;;;-144.05;52.85;125687.94;5065557;28;20047;-87
2022/07/26 10:48:21;;;;;;;7.93;2.80;;;22.60;99.90;;;-144.05;54.85;125687.94;5067634;28;20367;-88
2022/07/26 10:50:53;;;;;;;4.38;1.42;;;21.90;99.90;;;-144.05;56.08;125687.94;5065702;28;20032;-87
2022/07/26 10:53:26;;;;;;;5.45;1.60;;;21.30;99.90;;;-144.05;57.87;125687.94;5070046;28;20032;-87
2022/07/26 10:56:00;;;;;;;6.68;1.50;;;20.70;99.90;;;-144.05;59.92;125687.94;5061455;28;20032;-88
2022/07/26 10:58:26;;;;;;;3.63;1.35;;;20.20;99.90;;;-144.05;61.11;125687.94;5062934;28;20107;-89
2022/07/26 11:01:04;;;;;;;3.90;1.35;;;20.00;99.90;;;-144.05;60.87;125687.94;5061121;28;20029;-89
2022/07/26 11:03:43;;;;;;;2.65;1.17;;;19.80;99.90;;;-144.05;61.25;125687.94;5060103;28;20548;-88
2022/07/26 11:06:21;;;;;;;4.82;1.60;;;19.80;99.90;;;-144.05;61.75;125687.94;5077609;28;20025;-88
2022/07/26 11:08:48;;;;;;;4.53;2.08;;;19.90;99.90;;;-144.05;60.86;125687.94;5062868;28;20025;-90
2022/07/26 11:11:29;;;;;;;5.32;2.20;;;20.00;99.90;;;-144.05;60.53;125687.94;5060966;28;20116;-86
2022/07/26 11:14:14;;;;;;;3.72;1.95;;;20.10;99.90;;;-144.05;60.53;125687.94;5076756;28;20033;-90